createdAt,value
2019-06-08T00:00:01.608Z,1006.62
2019-06-08T00:01:01.631Z,1006.52
2019-06-08T00:02:01.596Z,1006.68
2019-06-08T00:03:01.622Z,1006.83
2019-06-08T00:04:01.557Z,1006.76
2019-06-08T00:05:01.657Z,1006.71
2019-06-08T00:06:01.548Z,1006.59
2019-06-08T00:07:01.578Z,1006.50
2019-06-08T00:08:01.510Z,1006.52
2019-06-08T00:09:01.572Z,1006.50
2019-06-08T00:10:01.491Z,1006.52
2019-06-08T00:11:01.597Z,1006.53
2019-06-08T00:12:01.486Z,1006.43
2019-06-08T00:13:01.521Z,1006.51
2019-06-08T00:14:01.448Z,1006.42
2019-06-08T00:15:01.499Z,1006.49
2019-06-08T00:16:01.423Z,1006.46
2019-06-08T00:17:01.473Z,1006.42
2019-06-08T00:18:01.403Z,1006.49
2019-06-08T00:19:01.424Z,1006.44
2019-06-08T00:20:01.382Z,1006.39
2019-06-08T00:21:01.446Z,1006.37
2019-06-08T00:22:01.375Z,1006.30
2019-06-08T00:23:01.455Z,1006.28
2019-06-08T00:24:01.339Z,1006.23
2019-06-08T00:25:01.386Z,1006.14
2019-06-08T00:26:01.314Z,1006.12
2019-06-08T00:27:01.469Z,1006.20
2019-06-08T00:28:01.311Z,1006.16
2019-06-08T00:29:01.390Z,1006.17
2019-06-08T00:30:01.381Z,1006.09
2019-06-08T00:31:10.317Z,1006.06
2019-06-08T00:32:01.261Z,1006.01
2019-06-08T00:33:03.370Z,1006.03
2019-06-08T00:34:01.229Z,1006.05
2019-06-08T00:35:02.254Z,1006.06
2019-06-08T00:36:01.212Z,1006.12
2019-06-08T00:37:01.275Z,1006.03
2019-06-08T00:38:01.190Z,1005.99
2019-06-08T00:39:01.257Z,1005.98
2019-06-08T00:40:01.175Z,1006.03
2019-06-08T00:41:01.170Z,1006.02
2019-06-08T00:42:01.143Z,1006.09
2019-06-08T00:43:01.215Z,1006.03
2019-06-08T00:44:01.122Z,1006.01
2019-06-08T00:45:01.203Z,1005.99
2019-06-08T00:46:01.124Z,1005.97
2019-06-08T00:47:01.104Z,1005.95
2019-06-08T00:48:01.088Z,1006.01
2019-06-08T00:49:01.118Z,1006.02
2019-06-08T00:50:01.049Z,1005.99
2019-06-08T00:51:01.170Z,1006.08
2019-06-08T00:52:01.026Z,1006.06
2019-06-08T00:53:01.077Z,1006.03
2019-06-08T00:54:01.004Z,1006.13
2019-06-08T00:55:01.069Z,1006.10
2019-06-08T00:56:00.982Z,1006.15
2019-06-08T00:57:01.072Z,1006.28
2019-06-08T00:58:00.989Z,1006.22
2019-06-08T00:59:00.997Z,1006.25
2019-06-08T01:00:09.706Z,1006.23
2019-06-08T01:01:01.932Z,1006.23
2019-06-08T01:02:01.007Z,1006.27
2019-06-08T01:03:00.919Z,1006.24
2019-06-08T01:04:00.920Z,1006.25
2019-06-08T01:05:00.885Z,1006.19
2019-06-08T01:06:00.931Z,1006.23
2019-06-08T01:07:00.859Z,1006.18
2019-06-08T01:08:00.977Z,1006.26
2019-06-08T01:09:00.843Z,1006.32
2019-06-08T01:10:00.868Z,1006.37
2019-06-08T01:11:00.836Z,1006.38
2019-06-08T01:12:00.872Z,1006.43
2019-06-08T01:13:00.813Z,1006.50
2019-06-08T01:14:00.883Z,1006.54
2019-06-08T01:15:00.797Z,1006.54
2019-06-08T01:16:00.798Z,1006.53
2019-06-08T01:17:00.753Z,1006.52
2019-06-08T01:18:03.882Z,1006.58
2019-06-08T01:19:00.725Z,1006.50
2019-06-08T01:20:01.803Z,1006.40
2019-06-08T01:21:00.706Z,1006.42
2019-06-08T01:22:00.730Z,1006.48
2019-06-08T01:23:00.696Z,1006.50
2019-06-08T01:24:00.758Z,1006.61
2019-06-08T01:25:00.665Z,1006.57
2019-06-08T01:26:01.683Z,1006.66
2019-06-08T01:27:00.698Z,1006.63
2019-06-08T01:28:00.700Z,1006.54
2019-06-08T01:29:00.620Z,1006.50
2019-06-08T01:30:00.688Z,1006.44
2019-06-08T01:31:00.598Z,1006.43
2019-06-08T01:32:00.706Z,1006.47
2019-06-08T01:33:00.585Z,1006.53
2019-06-08T01:34:00.611Z,1006.51
2019-06-08T01:35:00.550Z,1006.51
2019-06-08T01:36:00.628Z,1006.59
2019-06-08T01:37:00.541Z,1006.60
2019-06-08T01:38:00.563Z,1006.66
2019-06-08T01:39:00.506Z,1006.66
2019-06-08T01:40:00.549Z,1006.65
2019-06-08T01:41:00.489Z,1006.65
2019-06-08T01:42:00.563Z,1006.65
2019-06-08T01:43:00.478Z,1006.62
2019-06-08T01:44:00.475Z,1006.60
2019-06-08T01:45:00.436Z,1006.63
2019-06-08T01:46:00.497Z,1006.62
2019-06-08T01:47:00.417Z,1006.62
2019-06-08T01:48:00.537Z,1006.66
2019-06-08T01:49:00.394Z,1006.65
2019-06-08T01:50:00.424Z,1006.69
2019-06-08T01:51:00.369Z,1006.62
2019-06-08T01:52:00.431Z,1006.70
2019-06-08T01:53:00.364Z,1006.66
2019-06-08T01:54:00.442Z,1006.65
2019-06-08T01:55:00.331Z,1006.75
2019-06-08T01:56:00.395Z,1006.71
2019-06-08T01:57:00.306Z,1006.69
2019-06-08T01:58:00.399Z,1006.71
2019-06-08T01:59:00.290Z,1006.62
2019-06-08T02:00:00.464Z,1006.61
2019-06-08T02:01:00.267Z,1006.49
2019-06-08T02:02:07.257Z,1006.55
2019-06-08T02:03:00.268Z,1006.48
2019-06-08T02:04:01.339Z,1006.53
2019-06-08T02:05:00.225Z,1006.47
2019-06-08T02:06:01.245Z,1006.42
2019-06-08T02:07:00.193Z,1006.47
2019-06-08T02:08:00.231Z,1006.50
2019-06-08T02:09:00.185Z,1006.53
2019-06-08T02:10:00.251Z,1006.53
2019-06-08T02:11:00.152Z,1006.59
2019-06-08T02:12:00.264Z,1006.52
2019-06-08T02:13:00.127Z,1006.55
2019-06-08T02:14:00.203Z,1006.59
2019-06-08T02:15:00.119Z,1006.59
2019-06-08T02:16:00.196Z,1006.65
2019-06-08T02:17:00.090Z,1006.58
2019-06-08T02:18:00.091Z,1006.55
2019-06-08T02:19:00.074Z,1006.51
2019-06-08T02:20:00.115Z,1006.54
2019-06-08T02:21:00.038Z,1006.55
2019-06-08T02:22:00.121Z,1006.55
2019-06-08T02:23:00.025Z,1006.57
2019-06-08T02:24:00.058Z,1006.58
2019-06-08T02:25:00.000Z,1006.57
2019-06-08T02:26:00.048Z,1006.63
2019-06-08T02:26:59.976Z,1006.63
2019-06-08T02:28:00.068Z,1006.62
2019-06-08T02:28:59.969Z,1006.57
2019-06-08T02:29:59.973Z,1006.57
2019-06-08T02:30:59.935Z,1006.56
2019-06-08T02:31:59.984Z,1006.50
2019-06-08T02:32:59.906Z,1006.51
2019-06-08T02:33:59.916Z,1006.50
2019-06-08T02:34:59.884Z,1006.48
2019-06-08T02:35:59.916Z,1006.47
2019-06-08T02:36:59.864Z,1006.43
2019-06-08T02:37:59.922Z,1006.37
2019-06-08T02:38:59.867Z,1006.40
2019-06-08T02:39:59.955Z,1006.39
2019-06-08T02:40:59.817Z,1006.45
2019-06-08T02:41:59.851Z,1006.39
2019-06-08T02:42:59.795Z,1006.42
2019-06-08T02:44:01.842Z,1006.41
2019-06-08T02:44:59.782Z,1006.37
2019-06-08T02:45:59.878Z,1006.39
2019-06-08T02:46:59.755Z,1006.39
2019-06-08T02:48:06.763Z,1006.38
2019-06-08T02:49:04.100Z,1006.34
2019-06-08T02:50:01.756Z,1006.42
2019-06-08T02:50:59.785Z,1006.40
2019-06-08T02:51:59.747Z,1006.41
2019-06-08T02:52:59.690Z,1006.39
2019-06-08T02:53:59.765Z,1006.38
2019-06-08T02:54:59.668Z,1006.48
2019-06-08T02:55:59.745Z,1006.47
2019-06-08T02:56:59.646Z,1006.51
2019-06-08T02:57:59.643Z,1006.51
2019-06-08T02:58:59.641Z,1006.54
2019-06-08T02:59:59.667Z,1006.53
2019-06-08T03:00:59.596Z,1006.57
2019-06-08T03:01:59.685Z,1006.64
2019-06-08T03:02:59.573Z,1006.57
2019-06-08T03:03:59.633Z,1006.56
2019-06-08T03:04:59.565Z,1006.66
2019-06-08T03:05:59.617Z,1006.66
2019-06-08T03:06:59.544Z,1006.55
2019-06-08T03:07:59.623Z,1006.60
2019-06-08T03:08:59.525Z,1006.62
2019-06-08T03:09:59.541Z,1006.63
2019-06-08T03:10:59.489Z,1006.67
2019-06-08T03:11:59.546Z,1006.64
2019-06-08T03:12:59.467Z,1006.65
2019-06-08T03:13:59.491Z,1006.66
2019-06-08T03:14:59.439Z,1006.69
2019-06-08T03:15:59.473Z,1006.73
2019-06-08T03:16:59.418Z,1006.72
2019-06-08T03:17:59.485Z,1006.69
2019-06-08T03:18:59.411Z,1006.70
2019-06-08T03:19:59.490Z,1006.68
2019-06-08T03:20:59.373Z,1006.67
2019-06-08T03:21:59.410Z,1006.74
2019-06-08T03:22:59.362Z,1006.74
2019-06-08T03:23:59.448Z,1006.80
2019-06-08T03:24:59.330Z,1006.78
2019-06-08T03:25:59.417Z,1006.81
2019-06-08T03:26:59.323Z,1006.83
2019-06-08T03:27:59.346Z,1006.81
2019-06-08T03:28:59.317Z,1006.86
2019-06-08T03:29:59.361Z,1006.86
2019-06-08T03:30:59.284Z,1006.86
2019-06-08T03:31:59.383Z,1006.87
2019-06-08T03:32:59.282Z,1006.88
2019-06-08T03:34:06.767Z,1006.91
2019-06-08T03:34:59.249Z,1006.96
2019-06-08T03:36:00.322Z,1006.98
2019-06-08T03:36:59.200Z,1007.00
2019-06-08T03:37:59.214Z,1007.00
2019-06-08T03:38:59.178Z,1006.98
2019-06-08T03:39:59.252Z,1007.04
2019-06-08T03:40:59.154Z,1006.98
2019-06-08T03:41:59.241Z,1006.96
2019-06-08T03:43:00.309Z,1006.96
2019-06-08T03:43:59.149Z,1006.97
2019-06-08T03:44:59.131Z,1006.97
2019-06-08T03:45:59.160Z,1007.01
2019-06-08T03:46:59.117Z,1007.05
2019-06-08T03:47:59.169Z,1006.98
2019-06-08T03:48:59.082Z,1007.00
2019-06-08T03:49:59.115Z,1007.00
2019-06-08T03:50:59.042Z,1007.03
2019-06-08T03:51:59.102Z,1007.07
2019-06-08T03:52:59.024Z,1007.16
2019-06-08T03:53:59.132Z,1007.19
2019-06-08T03:54:59.050Z,1007.19
2019-06-08T03:55:59.021Z,1007.28
2019-06-08T03:56:58.977Z,1007.35
2019-06-08T03:57:59.034Z,1007.34
2019-06-08T03:58:58.984Z,1007.33
2019-06-08T03:59:58.990Z,1007.31
2019-06-08T04:00:58.936Z,1007.35
2019-06-08T04:01:58.961Z,1007.29
2019-06-08T04:02:58.929Z,1007.33
2019-06-08T04:04:00.212Z,1007.30
2019-06-08T04:04:58.919Z,1007.35
2019-06-08T04:05:58.892Z,1007.40
2019-06-08T04:06:58.867Z,1007.32
2019-06-08T04:07:58.900Z,1007.26
2019-06-08T04:08:58.859Z,1007.22
2019-06-08T04:09:58.952Z,1007.27
2019-06-08T04:10:58.825Z,1007.20
2019-06-08T04:11:58.829Z,1007.24
2019-06-08T04:12:58.810Z,1007.31
2019-06-08T04:14:00.886Z,1007.28
2019-06-08T04:14:58.795Z,1007.24
2019-06-08T04:15:59.883Z,1007.31
2019-06-08T04:16:58.765Z,1007.17
2019-06-08T04:17:58.767Z,1007.20
2019-06-08T04:18:58.729Z,1007.28
2019-06-08T04:20:10.393Z,1007.28
2019-06-08T04:20:59.705Z,1007.18
2019-06-08T04:21:59.711Z,1007.26
2019-06-08T04:22:58.688Z,1007.22
2019-06-08T04:23:58.715Z,1007.21
2019-06-08T04:24:58.677Z,1007.22
2019-06-08T04:25:58.716Z,1007.20
2019-06-08T04:26:58.683Z,1007.20
2019-06-08T04:27:58.732Z,1007.29
2019-06-08T04:28:58.626Z,1007.25
2019-06-08T04:29:58.677Z,1007.29
2019-06-08T04:30:58.615Z,1007.30
2019-06-08T04:31:58.653Z,1007.34
2019-06-08T04:32:58.592Z,1007.44
2019-06-08T04:33:58.572Z,1007.31
2019-06-08T04:34:58.571Z,1007.32
2019-06-08T04:35:58.580Z,1007.37
2019-06-08T04:36:58.532Z,1007.38
2019-06-08T04:37:58.610Z,1007.37
2019-06-08T04:38:58.512Z,1007.26
2019-06-08T04:39:58.542Z,1007.28
2019-06-08T04:40:58.491Z,1007.27
2019-06-08T04:41:58.536Z,1007.24
2019-06-08T04:42:58.466Z,1007.23
2019-06-08T04:43:58.550Z,1007.29
2019-06-08T04:44:58.453Z,1007.29
2019-06-08T04:45:58.444Z,1007.25
2019-06-08T04:46:58.426Z,1007.23
2019-06-08T04:47:58.469Z,1007.17
2019-06-08T04:48:58.410Z,1007.21
2019-06-08T04:49:58.524Z,1007.17
2019-06-08T04:50:58.382Z,1007.22
2019-06-08T04:51:58.399Z,1007.27
2019-06-08T04:52:58.354Z,1007.32
2019-06-08T04:53:58.396Z,1007.33
2019-06-08T04:54:58.343Z,1007.28
2019-06-08T04:55:58.416Z,1007.33
2019-06-08T04:56:58.309Z,1007.35
2019-06-08T04:57:58.320Z,1007.39
2019-06-08T04:58:58.285Z,1007.34
2019-06-08T04:59:59.296Z,1007.36
2019-06-08T05:00:58.270Z,1007.40
2019-06-08T05:01:59.279Z,1007.43
2019-06-08T05:02:58.241Z,1007.49
2019-06-08T05:03:58.264Z,1007.53
2019-06-08T05:04:58.286Z,1007.59
2019-06-08T05:06:06.776Z,1007.53
2019-06-08T05:06:58.209Z,1007.54
2019-06-08T05:07:59.222Z,1007.57
2019-06-08T05:08:58.187Z,1007.61
2019-06-08T05:09:58.207Z,1007.58
2019-06-08T05:10:58.171Z,1007.59
2019-06-08T05:11:58.223Z,1007.56
2019-06-08T05:12:58.130Z,1007.61
2019-06-08T05:13:58.225Z,1007.65
2019-06-08T05:14:58.110Z,1007.65
2019-06-08T05:15:58.170Z,1007.61
2019-06-08T05:16:58.083Z,1007.60
2019-06-08T05:17:58.151Z,1007.59
2019-06-08T05:18:58.067Z,1007.64
2019-06-08T05:19:58.067Z,1007.64
2019-06-08T05:20:58.057Z,1007.57
2019-06-08T05:21:58.075Z,1007.65
2019-06-08T05:22:58.027Z,1007.64
2019-06-08T05:23:59.083Z,1007.64
2019-06-08T05:24:57.995Z,1007.67
2019-06-08T05:25:58.042Z,1007.72
2019-06-08T05:26:57.980Z,1007.70
2019-06-08T05:27:58.019Z,1007.70
2019-06-08T05:28:57.948Z,1007.67
2019-06-08T05:29:58.032Z,1007.74
2019-06-08T05:30:57.946Z,1007.73
2019-06-08T05:31:57.940Z,1007.68
2019-06-08T05:32:57.908Z,1007.79
2019-06-08T05:33:57.972Z,1007.68
2019-06-08T05:34:57.879Z,1007.63
2019-06-08T05:35:57.904Z,1007.63
2019-06-08T05:36:57.868Z,1007.73
2019-06-08T05:37:57.881Z,1007.69
2019-06-08T05:38:57.838Z,1007.67
2019-06-08T05:39:57.896Z,1007.65
2019-06-08T05:40:57.844Z,1007.67
2019-06-08T05:41:57.905Z,1007.66
2019-06-08T05:42:57.792Z,1007.70
2019-06-08T05:43:57.820Z,1007.65
2019-06-08T05:44:57.786Z,1007.65
2019-06-08T05:45:57.891Z,1007.66
2019-06-08T05:46:57.759Z,1007.74
2019-06-08T05:47:57.842Z,1007.73
2019-06-08T05:48:57.733Z,1007.78
2019-06-08T05:49:57.756Z,1007.66
2019-06-08T05:51:03.977Z,1007.82
2019-06-08T05:51:59.715Z,1007.72
2019-06-08T05:52:57.712Z,1007.84
2019-06-08T05:53:57.855Z,1007.71
2019-06-08T05:54:57.686Z,1007.84
2019-06-08T05:55:57.753Z,1007.86
2019-06-08T05:56:57.637Z,1007.89
2019-06-08T05:57:57.726Z,1007.89
2019-06-08T05:58:57.635Z,1007.97
2019-06-08T05:59:57.619Z,1007.91
2019-06-08T06:00:57.616Z,1007.97
2019-06-08T06:01:57.637Z,1008.05
2019-06-08T06:02:57.574Z,1007.93
2019-06-08T06:03:57.663Z,1007.92
2019-06-08T06:04:57.607Z,1007.86
2019-06-08T06:05:57.603Z,1008.00
2019-06-08T06:06:57.533Z,1007.91
2019-06-08T06:07:57.584Z,1007.93
2019-06-08T06:08:57.539Z,1007.95
2019-06-08T06:09:57.612Z,1007.98
2019-06-08T06:10:57.504Z,1007.96
2019-06-08T06:11:57.501Z,1007.94
2019-06-08T06:12:57.463Z,1008.03
2019-06-08T06:13:57.541Z,1008.10
2019-06-08T06:14:57.450Z,1008.06
2019-06-08T06:15:57.460Z,1007.90
2019-06-08T06:16:57.418Z,1007.92
2019-06-08T06:17:57.439Z,1007.98
2019-06-08T06:18:57.399Z,1007.93
2019-06-08T06:19:57.453Z,1007.92
2019-06-08T06:21:10.357Z,1007.96
2019-06-08T06:21:58.359Z,1007.96
2019-06-08T06:22:58.639Z,1008.01
2019-06-08T06:23:57.338Z,1008.01
2019-06-08T06:24:57.381Z,1007.94
2019-06-08T06:25:57.316Z,1008.04
2019-06-08T06:26:57.434Z,1008.04
2019-06-08T06:27:57.303Z,1008.02
2019-06-08T06:29:04.269Z,1008.08
2019-06-08T06:29:57.276Z,1008.09
2019-06-08T06:31:04.283Z,1008.11
2019-06-08T06:31:57.274Z,1008.14
2019-06-08T06:32:57.332Z,1008.14
2019-06-08T06:33:57.269Z,1008.09
2019-06-08T06:34:57.244Z,1008.13
2019-06-08T06:35:57.206Z,1008.27
2019-06-08T06:36:57.617Z,1008.16
2019-06-08T06:37:57.188Z,1008.30
2019-06-08T06:38:57.271Z,1008.31
2019-06-08T06:39:57.159Z,1008.23
2019-06-08T06:40:57.214Z,1008.28
2019-06-08T06:41:57.177Z,1008.29
2019-06-08T06:42:57.218Z,1008.26
2019-06-08T06:43:57.114Z,1008.38
2019-06-08T06:44:57.211Z,1008.40
2019-06-08T06:45:57.097Z,1008.39
2019-06-08T06:46:57.152Z,1008.47
2019-06-08T06:47:57.069Z,1008.43
2019-06-08T06:48:57.147Z,1008.46
2019-06-08T06:49:57.072Z,1008.51
2019-06-08T06:50:57.160Z,1008.63
2019-06-08T06:51:57.050Z,1008.52
2019-06-08T06:52:57.064Z,1008.47
2019-06-08T06:53:57.006Z,1008.63
2019-06-08T06:54:57.075Z,1008.59
2019-06-08T06:55:56.987Z,1008.67
2019-06-08T06:56:57.024Z,1008.73
2019-06-08T06:57:57.009Z,1008.75
2019-06-08T06:58:57.009Z,1008.78
2019-06-08T06:59:56.953Z,1008.83
2019-06-08T07:00:57.013Z,1008.85
2019-06-08T07:01:57.629Z,1008.87
2019-06-08T07:02:56.929Z,1008.69
2019-06-08T07:03:56.888Z,1008.80
2019-06-08T07:04:56.947Z,1008.90
2019-06-08T07:05:56.871Z,1008.84
2019-06-08T07:06:56.885Z,1008.84
2019-06-08T07:07:56.843Z,1008.62
2019-06-08T07:08:56.881Z,1008.87
2019-06-08T07:09:56.828Z,1008.84
2019-06-08T07:10:56.883Z,1008.88
2019-06-08T07:11:56.860Z,1009.00
2019-06-08T07:12:56.890Z,1008.93
2019-06-08T07:13:56.800Z,1008.89
2019-06-08T07:14:57.830Z,1008.92
2019-06-08T07:15:58.226Z,1008.89
2019-06-08T07:16:58.306Z,1009.01
2019-06-08T07:17:56.755Z,1009.09
2019-06-08T07:18:56.841Z,1008.98
2019-06-08T07:19:56.713Z,1009.06
2019-06-08T07:20:56.746Z,1009.07
2019-06-08T07:21:56.722Z,1009.07
2019-06-08T07:22:56.757Z,1009.02
2019-06-08T07:23:56.679Z,1008.94
2019-06-08T07:24:56.693Z,1009.11
2019-06-08T07:25:56.648Z,1009.04
2019-06-08T07:26:56.715Z,1009.20
2019-06-08T07:27:56.622Z,1009.06
2019-06-08T07:28:56.693Z,1009.21
2019-06-08T07:29:56.597Z,1009.27
2019-06-08T07:30:56.604Z,1009.21
2019-06-08T07:31:56.593Z,1009.27
2019-06-08T07:32:56.621Z,1009.32
2019-06-08T07:33:56.558Z,1009.26
2019-06-08T07:34:56.663Z,1009.31
2019-06-08T07:35:56.607Z,1009.34
2019-06-08T07:36:56.599Z,1009.45
2019-06-08T07:37:56.514Z,1009.40
2019-06-08T07:38:56.560Z,1009.44
2019-06-08T07:39:56.540Z,1009.51
2019-06-08T07:40:59.607Z,1009.43
2019-06-08T07:41:56.485Z,1009.40
2019-06-08T07:42:56.796Z,1009.36
2019-06-08T07:43:56.687Z,1009.45
2019-06-08T07:44:56.500Z,1009.55
2019-06-08T07:45:56.443Z,1009.52
2019-06-08T07:46:56.544Z,1009.56
2019-06-08T07:47:56.403Z,1009.51
2019-06-08T07:48:56.666Z,1009.77
2019-06-08T07:49:56.388Z,1009.65
2019-06-08T07:50:56.600Z,1009.62
2019-06-08T07:52:07.529Z,1009.58
2019-06-08T07:52:58.776Z,1009.70
2019-06-08T07:53:56.358Z,1009.71
2019-06-08T07:54:56.680Z,1009.60
2019-06-08T07:55:56.448Z,1009.75
2019-06-08T07:56:57.065Z,1009.43
2019-06-08T07:57:57.343Z,1009.69
2019-06-08T07:58:57.197Z,1009.70
2019-06-08T07:59:56.461Z,1009.61
2019-06-08T08:01:02.615Z,1009.83
2019-06-08T08:01:58.360Z,1009.68
2019-06-08T08:02:58.288Z,1009.69
2019-06-08T08:03:56.377Z,1009.83
2019-06-08T08:04:56.723Z,1009.87
2019-06-08T08:05:56.762Z,1009.79
2019-06-08T08:06:56.721Z,1009.80
2019-06-08T08:07:56.904Z,1009.84
2019-06-08T08:08:56.877Z,1009.85
2019-06-08T08:09:56.963Z,1009.90
2019-06-08T08:10:56.745Z,1009.91
2019-06-08T08:11:57.142Z,1009.92
2019-06-08T08:12:56.849Z,1009.97
2019-06-08T08:13:57.469Z,1009.91
2019-06-08T08:14:57.857Z,1009.93
2019-06-08T08:15:58.714Z,1009.91
2019-06-08T08:16:57.166Z,1010.02
2019-06-08T08:17:57.592Z,1010.07
2019-06-08T08:18:57.504Z,1009.97
2019-06-08T08:19:57.315Z,1009.98
2019-06-08T08:21:01.071Z,1009.92
2019-06-08T08:22:00.099Z,1009.95
2019-06-08T08:23:03.584Z,1009.98
2019-06-08T08:23:59.644Z,1009.93
2019-06-08T08:25:01.336Z,1010.04
2019-06-08T08:26:00.306Z,1010.03
2019-06-08T08:26:59.343Z,1009.99
2019-06-08T08:27:59.068Z,1010.04
2019-06-08T08:28:59.668Z,1010.04
2019-06-08T08:29:59.751Z,1009.97
2019-06-08T08:30:58.574Z,1009.96
2019-06-08T08:31:55.917Z,1010.05
2019-06-08T08:32:57.130Z,1010.15
2019-06-08T08:33:58.519Z,1009.99
2019-06-08T08:35:00.338Z,1010.02
2019-06-08T08:35:59.813Z,1009.97
2019-06-08T08:37:01.535Z,1010.11
2019-06-08T08:38:01.798Z,1010.11
2019-06-08T08:39:00.515Z,1009.99
2019-06-08T08:39:59.638Z,1010.04
2019-06-08T08:41:06.292Z,1009.87
2019-06-08T08:42:02.822Z,1010.14
2019-06-08T08:42:58.701Z,1010.08
2019-06-08T08:44:00.825Z,1010.12
2019-06-08T08:45:02.672Z,1010.08
2019-06-08T08:45:58.790Z,1010.22
2019-06-08T08:46:56.983Z,1010.20
2019-06-08T08:48:12.296Z,1010.25
2019-06-08T08:49:05.985Z,1010.33
2019-06-08T08:49:58.699Z,1010.30
2019-06-08T08:50:56.936Z,1010.32
2019-06-08T08:51:56.157Z,1010.31
2019-06-08T08:52:58.518Z,1010.36
2019-06-08T08:53:58.486Z,1010.37
2019-06-08T08:54:59.074Z,1010.39
2019-06-08T08:55:57.931Z,1010.29
2019-06-08T08:57:01.069Z,1010.39
2019-06-08T08:57:59.059Z,1010.39
2019-06-08T08:58:59.166Z,1010.43
2019-06-08T09:00:01.114Z,1010.37
2019-06-08T09:00:59.483Z,1010.48
2019-06-08T09:01:56.751Z,1010.41
2019-06-08T09:03:19.026Z,1010.55
2019-06-08T09:04:00.930Z,1010.38
2019-06-08T09:04:59.697Z,1010.52
2019-06-08T09:06:00.594Z,1010.51
2019-06-08T09:07:02.360Z,1010.47
2019-06-08T09:07:58.821Z,1010.53
2019-06-08T09:09:00.816Z,1010.58
2019-06-08T09:10:00.431Z,1010.59
2019-06-08T09:10:59.734Z,1010.48
2019-06-08T09:12:00.248Z,1010.66
2019-06-08T09:12:59.982Z,1010.71
2019-06-08T09:14:02.502Z,1010.71
2019-06-08T09:14:58.896Z,1010.67
2019-06-08T09:15:55.830Z,1010.66
2019-06-08T09:16:56.372Z,1010.72
2019-06-08T09:17:56.462Z,1010.63
2019-06-08T09:18:55.824Z,1010.71
2019-06-08T09:19:58.430Z,1010.68
2019-06-08T09:20:58.258Z,1010.72
2019-06-08T09:21:56.726Z,1010.73
2019-06-08T09:23:03.930Z,1010.73
2019-06-08T09:23:58.823Z,1010.83
2019-06-08T09:24:59.209Z,1010.91
2019-06-08T09:26:03.942Z,1010.88
2019-06-08T09:27:00.007Z,1010.81
2019-06-08T09:27:59.390Z,1010.87
2019-06-08T09:28:56.174Z,1010.99
2019-06-08T09:29:57.457Z,1010.95
2019-06-08T09:30:56.713Z,1010.78
2019-06-08T09:31:56.019Z,1011.01
2019-06-08T09:32:57.161Z,1010.98
2019-06-08T09:34:04.119Z,1010.98
2019-06-08T09:34:59.219Z,1010.98
2019-06-08T09:35:59.985Z,1010.98
2019-06-08T09:36:59.745Z,1011.04
2019-06-08T09:37:59.451Z,1011.00
2019-06-08T09:38:59.611Z,1011.13
2019-06-08T09:39:58.505Z,1011.16
2019-06-08T09:40:55.143Z,1011.00
2019-06-08T09:41:58.200Z,1011.14
2019-06-08T09:43:05.421Z,1011.13
2019-06-08T09:43:58.166Z,1011.14
2019-06-08T09:44:55.698Z,1011.13
2019-06-08T09:45:55.408Z,1011.12
2019-06-08T09:46:56.354Z,1011.15
2019-06-08T09:47:55.395Z,1011.20
2019-06-08T09:48:58.389Z,1011.18
2019-06-08T09:49:55.389Z,1011.02
2019-06-08T09:50:55.196Z,1011.27
2019-06-08T09:51:56.496Z,1011.26
2019-06-08T09:53:10.117Z,1011.22
2019-06-08T09:54:00.347Z,1011.25
2019-06-08T09:55:00.291Z,1011.33
2019-06-08T09:55:57.575Z,1011.33
2019-06-08T09:56:55.782Z,1011.35
2019-06-08T09:57:58.967Z,1011.35
2019-06-08T09:58:58.228Z,1011.34
2019-06-08T09:59:57.117Z,1011.31
2019-06-08T10:00:56.065Z,1011.24
2019-06-08T10:01:55.610Z,1011.31
2019-06-08T10:02:56.830Z,1011.40
2019-06-08T10:03:56.136Z,1011.35
2019-06-08T10:04:56.084Z,1011.42
2019-06-08T10:05:56.170Z,1011.40
2019-06-08T10:06:56.197Z,1011.39
2019-06-08T10:07:56.951Z,1011.34
2019-06-08T10:08:56.254Z,1011.43
2019-06-08T10:09:56.821Z,1011.44
2019-06-08T10:11:01.482Z,1011.29
2019-06-08T10:11:58.615Z,1011.49
2019-06-08T10:12:56.943Z,1011.42
2019-06-08T10:13:57.080Z,1011.57
2019-06-08T10:14:56.719Z,1011.38
2019-06-08T10:15:55.192Z,1011.47
2019-06-08T10:16:54.804Z,1011.38
2019-06-08T10:17:54.882Z,1011.50
2019-06-08T10:18:55.053Z,1011.57
2019-06-08T10:19:54.771Z,1011.56
2019-06-08T10:20:54.813Z,1011.49
2019-06-08T10:21:54.853Z,1011.46
2019-06-08T10:22:54.835Z,1011.54
2019-06-08T10:23:54.873Z,1011.52
2019-06-08T10:24:55.416Z,1011.53
2019-06-08T10:25:54.907Z,1011.61
2019-06-08T10:26:55.146Z,1011.53
2019-06-08T10:27:55.170Z,1011.60
2019-06-08T10:28:55.337Z,1011.64
2019-06-08T10:29:55.210Z,1011.58
2019-06-08T10:30:55.434Z,1011.56
2019-06-08T10:31:55.200Z,1011.54
2019-06-08T10:32:56.267Z,1011.48
2019-06-08T10:33:56.306Z,1011.57
2019-06-08T10:34:56.395Z,1011.56
2019-06-08T10:35:55.713Z,1011.64
2019-06-08T10:36:57.979Z,1011.49
2019-06-08T10:37:55.627Z,1012.07
2019-06-08T10:38:56.715Z,1011.65
2019-06-08T10:39:55.800Z,1011.52
2019-06-08T10:40:58.706Z,1011.62
2019-06-08T10:41:57.602Z,1011.53
2019-06-08T10:42:54.543Z,1011.51
2019-06-08T10:43:54.444Z,1011.56
2019-06-08T10:44:54.496Z,1011.60
2019-06-08T10:45:54.428Z,1011.48
2019-06-08T10:46:54.469Z,1011.64
2019-06-08T10:47:54.429Z,1011.56
2019-06-08T10:48:54.486Z,1011.59
2019-06-08T10:49:54.387Z,1011.57
2019-06-08T10:50:54.397Z,1011.56
2019-06-08T10:51:54.349Z,1011.49
2019-06-08T10:52:54.417Z,1011.50
2019-06-08T10:53:54.343Z,1011.56
2019-06-08T10:54:54.360Z,1011.53
2019-06-08T10:55:54.307Z,1011.53
2019-06-08T10:57:05.093Z,1011.56
2019-06-08T10:57:54.295Z,1011.62
2019-06-08T10:58:58.015Z,1011.57
2019-06-08T10:59:54.307Z,1011.61
2019-06-08T11:00:55.289Z,1011.57
2019-06-08T11:01:54.265Z,1011.65
2019-06-08T11:02:54.297Z,1011.63
2019-06-08T11:03:54.249Z,1011.63
2019-06-08T11:04:54.330Z,1011.64
2019-06-08T11:05:54.206Z,1011.65
2019-06-08T11:06:54.319Z,1011.66
2019-06-08T11:07:54.188Z,1011.74
2019-06-08T11:08:54.213Z,1011.67
2019-06-08T11:09:54.175Z,1011.69
2019-06-08T11:10:54.230Z,1011.69
2019-06-08T11:11:54.131Z,1011.71
2019-06-08T11:12:54.179Z,1011.71
2019-06-08T11:13:54.125Z,1011.71
2019-06-08T11:14:54.132Z,1011.75
2019-06-08T11:15:54.103Z,1011.76
2019-06-08T11:16:54.194Z,1011.73
2019-06-08T11:17:54.081Z,1011.82
2019-06-08T11:18:54.185Z,1011.76
2019-06-08T11:19:54.072Z,1011.71
2019-06-08T11:20:54.100Z,1011.72
2019-06-08T11:21:54.046Z,1011.73
2019-06-08T11:22:54.125Z,1011.75
2019-06-08T11:24:10.837Z,1011.81
2019-06-08T11:24:55.013Z,1011.77
2019-06-08T11:25:54.023Z,1011.86
2019-06-08T11:26:53.983Z,1011.82
2019-06-08T11:27:54.052Z,1011.80
2019-06-08T11:28:53.950Z,1011.74
2019-06-08T11:29:53.998Z,1011.73
2019-06-08T11:30:53.938Z,1011.78
2019-06-08T11:31:53.987Z,1011.93
2019-06-08T11:32:53.934Z,1011.85
2019-06-08T11:33:53.986Z,1011.85
2019-06-08T11:34:53.894Z,1011.75
2019-06-08T11:35:53.899Z,1011.71
2019-06-08T11:36:53.893Z,1011.79
2019-06-08T11:37:53.904Z,1011.74
2019-06-08T11:38:53.836Z,1011.74
2019-06-08T11:39:54.885Z,1011.72
2019-06-08T11:40:53.820Z,1011.76
2019-06-08T11:41:53.828Z,1011.82
2019-06-08T11:42:53.793Z,1011.74
2019-06-08T11:44:03.258Z,1011.81
2019-06-08T11:44:53.791Z,1011.79
2019-06-08T11:45:54.787Z,1011.91
2019-06-08T11:46:53.749Z,1011.86
2019-06-08T11:47:53.778Z,1011.94
2019-06-08T11:48:53.729Z,1011.95
2019-06-08T11:49:53.862Z,1011.92
2019-06-08T11:50:53.701Z,1011.94
2019-06-08T11:51:53.794Z,1011.71
2019-06-08T11:52:53.692Z,1012.13
2019-06-08T11:53:53.705Z,1012.01
2019-06-08T11:54:53.677Z,1011.98
2019-06-08T11:55:53.713Z,1011.83
2019-06-08T11:56:53.631Z,1011.88
2019-06-08T11:57:53.762Z,1011.89
2019-06-08T11:58:53.607Z,1011.85
2019-06-08T11:59:53.678Z,1012.01
2019-06-08T12:00:53.590Z,1011.84
2019-06-08T12:01:53.655Z,1011.81
2019-06-08T12:02:53.601Z,1011.95
2019-06-08T12:03:53.573Z,1012.03
2019-06-08T12:04:53.586Z,1011.70